Time;durP1;ratioP1;P1;durP2;ratioP2;P2;SDS_P1;SDS_P2;PMS_P1;PMS_P2;Temp;Humidity;BMP_temperature;BMP_pressure;BME280_temperature;BME280_humidity;BME280_pressure;Samples;Min_cycle;Max_cycle;Signal;HPM_P1;HPM_P2
2022/03/09 00:01:14;;;;;;;1.52;0.50;;;;;;;;;;4213345;28;20039;-66
2022/03/09 00:03:15;;;;;;;1.70;0.47;;;;;;;;;;4213009;28;20402;-66
2022/03/09 00:05:16;;;;;;;0.75;0.47;;;;;;;;;;4213239;28;20130;-66
2022/03/09 00:07:17;;;;;;;0.60;0.32;;;;;;;;;;4213176;28;20140;-65
2022/03/09 00:09:17;;;;;;;0.65;0.40;;;;;;;;;;4211866;28;20076;-66
2022/03/09 00:11:18;;;;;;;0.43;0.30;;;;;;;;;;4213200;28;20104;-65
2022/03/09 00:13:19;;;;;;;1.08;0.52;;;;;;;;;;4213133;28;20048;-65
2022/03/09 00:15:20;;;;;;;0.57;0.43;;;;;;;;;;4213206;28;20177;-65
2022/03/09 00:17:22;;;;;;;1.08;0.50;;;;;;;;;;4212861;28;20052;-65
2022/03/09 00:19:24;;;;;;;0.88;0.40;;;;;;;;;;4213134;28;20113;-65
2022/03/09 00:21:25;;;;;;;0.38;0.38;;;;;;;;;;4213210;28;20421;-65
2022/03/09 00:23:26;;;;;;;1.10;0.70;;;;;;;;;;4213288;28;20127;-65
2022/03/09 00:25:26;;;;;;;0.95;0.30;;;;;;;;;;4213157;28;20065;-65
2022/03/09 00:27:29;;;;;;;0.73;0.30;;;;;;;;;;4212926;28;20059;-65
2022/03/09 00:29:30;;;;;;;0.55;0.30;;;;;;;;;;4212974;28;20044;-65
2022/03/09 00:31:32;;;;;;;1.00;0.50;;;;;;;;;;4211960;28;20066;-66
2022/03/09 00:33:33;;;;;;;2.92;0.55;;;;;;;;;;4212704;28;20113;-65
2022/03/09 00:35:37;;;;;;;1.08;0.52;;;;;;;;;;4212831;28;20101;-65
2022/03/09 00:37:38;;;;;;;1.25;0.40;;;;;;;;;;4184146;28;20045;-65
2022/03/09 00:39:39;;;;;;;0.82;0.43;;;;;;;;;;4196109;28;20067;-66
2022/03/09 00:41:40;;;;;;;2.75;0.40;;;;;;;;;;4196333;28;20048;-65
2022/03/09 00:43:42;;;;;;;0.30;0.30;;;;;;;;;;4196269;28;20070;-65
2022/03/09 00:45:43;;;;;;;1.65;0.45;;;;;;;;;;4196299;28;20040;-65
2022/03/09 00:47:44;;;;;;;0.47;0.30;;;;;;;;;;4195519;28;20049;-65
2022/03/09 00:49:44;;;;;;;1.15;0.40;;;;;;;;;;4196039;28;20414;-66
2022/03/09 00:51:45;;;;;;;0.93;0.40;;;;;;;;;;4195698;28;20071;-65
2022/03/09 00:53:46;;;;;;;0.52;0.32;;;;;;;;;;4196005;28;20053;-65
2022/03/09 00:55:47;;;;;;;1.85;0.38;;;;;;;;;;4196299;28;20051;-66
2022/03/09 00:57:48;;;;;;;0.73;0.40;;;;;;;;;;4196078;28;20536;-66
2022/03/09 00:59:49;;;;;;;0.60;0.40;;;;;;;;;;4196217;28;20272;-65
2022/03/09 01:01:50;;;;;;;1.90;0.40;;;;;;;;;;4195739;28;20631;-65
2022/03/09 01:03:51;;;;;;;1.02;0.40;;;;;;;;;;4196176;28;20588;-66
2022/03/09 01:05:53;;;;;;;1.00;0.60;;;;;;;;;;4196039;28;20446;-66
2022/03/09 01:07:53;;;;;;;1.10;0.47;;;;;;;;;;4195885;28;20098;-65
2022/03/09 01:09:54;;;;;;;0.47;0.40;;;;;;;;;;4195941;28;20094;-65
2022/03/09 01:11:56;;;;;;;0.32;0.32;;;;;;;;;;4212270;28;20090;-66
2022/03/09 01:13:57;;;;;;;0.68;0.32;;;;;;;;;;4212765;28;20044;-66
2022/03/09 01:15:58;;;;;;;1.35;0.30;;;;;;;;;;4212829;28;20048;-66
2022/03/09 01:17:59;;;;;;;0.52;0.35;;;;;;;;;;4212301;28;20506;-65
2022/03/09 01:20:00;;;;;;;1.88;0.40;;;;;;;;;;4212590;28;20063;-66
2022/03/09 01:22:03;;;;;;;0.57;0.40;;;;;;;;;;4212737;28;20048;-66
2022/03/09 01:24:04;;;;;;;1.00;0.35;;;;;;;;;;4211572;28;20078;-66
2022/03/09 01:26:05;;;;;;;1.65;0.75;;;;;;;;;;4212414;28;20105;-66
2022/03/09 01:28:06;;;;;;;0.55;0.30;;;;;;;;;;4212410;28;20043;-66
2022/03/09 01:30:07;;;;;;;1.38;0.40;;;;;;;;;;4212551;28;20504;-65
2022/03/09 01:32:08;;;;;;;1.00;0.40;;;;;;;;;;4210834;28;20048;-66
2022/03/09 01:34:09;;;;;;;1.95;0.30;;;;;;;;;;4212531;28;20059;-66
2022/03/09 01:36:10;;;;;;;0.73;0.50;;;;;;;;;;4212327;28;20135;-65
2022/03/09 01:38:11;;;;;;;0.65;0.50;;;;;;;;;;4212237;28;20117;-66
2022/03/09 01:40:12;;;;;;;0.45;0.20;;;;;;;;;;4211043;28;20056;-66
2022/03/09 01:42:13;;;;;;;0.85;0.40;;;;;;;;;;4212196;28;20360;-65
2022/03/09 01:44:20;;;;;;;1.55;0.45;;;;;;;;;;4212374;28;20048;-65
2022/03/09 01:46:20;;;;;;;1.02;0.45;;;;;;;;;;4212491;28;20499;-65
2022/03/09 01:48:21;;;;;;;0.70;0.40;;;;;;;;;;4210740;28;20193;-65
2022/03/09 01:50:22;;;;;;;1.38;0.40;;;;;;;;;;4212337;28;20052;-66
2022/03/09 01:52:23;;;;;;;2.33;0.38;;;;;;;;;;4210927;28;20098;-66
2022/03/09 01:54:25;;;;;;;1.88;0.50;;;;;;;;;;4212263;28;20445;-65
2022/03/09 01:56:26;;;;;;;1.20;0.30;;;;;;;;;;4212136;28;20376;-67
2022/03/09 01:58:27;;;;;;;1.00;0.38;;;;;;;;;;4212537;28;20070;-65
2022/03/09 02:00:28;;;;;;;0.90;0.40;;;;;;;;;;4212118;28;20048;-65
2022/03/09 02:02:29;;;;;;;0.80;0.35;;;;;;;;;;4212509;28;20055;-66
2022/03/09 02:04:30;;;;;;;0.60;0.50;;;;;;;;;;4215504;28;20076;-65
2022/03/09 02:06:31;;;;;;;1.63;0.57;;;;;;;;;;4215363;28;20174;-65
2022/03/09 02:10:53;;;;;;;1.33;0.40;;;;;;;;;;4197221;28;20117;-65
2022/03/09 02:12:54;;;;;;;1.02;0.38;;;;;;;;;;4215013;28;20478;-65
2022/03/09 02:14:55;;;;;;;1.95;0.50;;;;;;;;;;4215369;28;20055;-66
2022/03/09 02:16:57;;;;;;;0.85;0.30;;;;;;;;;;4214802;28;20063;-65
2022/03/09 02:19:00;;;;;;;0.73;0.50;;;;;;;;;;4214998;28;20071;-66
2022/03/09 02:21:02;;;;;;;1.33;0.50;;;;;;;;;;4214955;28;20052;-65
2022/03/09 02:23:03;;;;;;;0.50;0.40;;;;;;;;;;4214933;28;20052;-65
2022/03/09 02:25:14;;;;;;;1.48;0.50;;;;;;;;;;4214783;28;20356;-65
2022/03/09 02:27:15;;;;;;;0.50;0.40;;;;;;;;;;4215254;28;20052;-65
2022/03/09 02:29:16;;;;;;;1.02;0.40;;;;;;;;;;4214780;28;20188;-66
2022/03/09 02:31:17;;;;;;;0.93;0.30;;;;;;;;;;4214583;28;20063;-66
2022/03/09 02:33:18;;;;;;;1.77;0.50;;;;;;;;;;4214422;28;20074;-66
2022/03/09 02:35:19;;;;;;;1.08;0.45;;;;;;;;;;4196839;28;20057;-66
2022/03/09 02:37:20;;;;;;;0.77;0.38;;;;;;;;;;4214489;28;20040;-66
2022/03/09 02:39:22;;;;;;;1.15;0.40;;;;;;;;;;4213428;28;20056;-66
2022/03/09 02:41:23;;;;;;;0.65;0.30;;;;;;;;;;4213360;28;20071;-64
2022/03/09 02:43:24;;;;;;;0.77;0.45;;;;;;;;;;4214519;28;20063;-66
2022/03/09 02:45:25;;;;;;;0.50;0.30;;;;;;;;;;4213362;28;20479;-65
2022/03/09 02:47:26;;;;;;;1.00;0.40;;;;;;;;;;4214517;28;20093;-66
2022/03/09 02:49:27;;;;;;;2.42;0.50;;;;;;;;;;4213417;28;20079;-64
2022/03/09 02:51:28;;;;;;;0.63;0.30;;;;;;;;;;4214645;28;20375;-64
2022/03/09 02:53:29;;;;;;;0.70;0.47;;;;;;;;;;4214242;28;20101;-66
2022/03/09 02:55:31;;;;;;;0.55;0.35;;;;;;;;;;4196521;28;20464;-66
2022/03/09 02:57:32;;;;;;;1.10;0.40;;;;;;;;;;4214278;28;20040;-66
2022/03/09 02:59:33;;;;;;;1.95;0.68;;;;;;;;;;4214829;28;20044;-66
2022/03/09 03:01:34;;;;;;;0.70;0.47;;;;;;;;;;4214256;28;20048;-67
2022/03/09 03:03:36;;;;;;;0.82;0.30;;;;;;;;;;4214277;28;20063;-66
2022/03/09 03:05:37;;;;;;;1.58;0.50;;;;;;;;;;4214477;28;20120;-66
2022/03/09 03:07:38;;;;;;;0.60;0.30;;;;;;;;;;4214047;28;20050;-66
2022/03/09 03:09:39;;;;;;;0.77;0.30;;;;;;;;;;4214082;28;20109;-66
2022/03/09 03:11:40;;;;;;;0.85;0.32;;;;;;;;;;4214107;28;20113;-66
2022/03/09 03:13:41;;;;;;;0.30;0.28;;;;;;;;;;4213730;28;20044;-66
2022/03/09 03:15:42;;;;;;;1.77;0.50;;;;;;;;;;4213522;28;20105;-66
2022/03/09 03:17:46;;;;;;;0.63;0.30;;;;;;;;;;4213449;28;20490;-66
2022/03/09 03:19:47;;;;;;;0.63;0.30;;;;;;;;;;4214177;28;20135;-65
2022/03/09 03:21:48;;;;;;;0.40;0.30;;;;;;;;;;4213796;28;20093;-67
2022/03/09 03:23:49;;;;;;;0.57;0.30;;;;;;;;;;4195960;28;20048;-66
2022/03/09 03:25:50;;;;;;;1.13;0.60;;;;;;;;;;4213885;28;20552;-66
2022/03/09 03:27:51;;;;;;;0.60;0.30;;;;;;;;;;4213827;28;20170;-66
2022/03/09 03:29:52;;;;;;;0.85;0.50;;;;;;;;;;4213852;28;20202;-66
2022/03/09 03:31:53;;;;;;;1.48;0.50;;;;;;;;;;4213552;28;20105;-67
2022/03/09 03:33:54;;;;;;;0.77;0.35;;;;;;;;;;4213933;28;20735;-66
2022/03/09 03:35:55;;;;;;;1.13;0.57;;;;;;;;;;4213725;28;20097;-66
2022/03/09 03:37:56;;;;;;;0.65;0.38;;;;;;;;;;4213486;28;20090;-66
2022/03/09 03:39:56;;;;;;;0.68;0.40;;;;;;;;;;4213651;28;20186;-66
2022/03/09 03:41:58;;;;;;;1.08;0.47;;;;;;;;;;4195843;28;20056;-66
2022/03/09 03:43:59;;;;;;;0.77;0.20;;;;;;;;;;4195749;28;20048;-67
2022/03/09 03:46:00;;;;;;;0.68;0.40;;;;;;;;;;4213861;28;20092;-66
2022/03/09 03:48:01;;;;;;;0.50;0.30;;;;;;;;;;4212994;28;20059;-66
2022/03/09 03:50:02;;;;;;;0.95;0.47;;;;;;;;;;4213791;28;20052;-66
2022/03/09 03:52:04;;;;;;;0.75;0.30;;;;;;;;;;4195305;28;20506;-66
2022/03/09 03:54:04;;;;;;;0.50;0.20;;;;;;;;;;4213907;28;20040;-66
2022/03/09 03:56:06;;;;;;;1.70;0.40;;;;;;;;;;4213334;28;20094;-67
2022/03/09 03:58:07;;;;;;;0.50;0.40;;;;;;;;;;4213342;28;20044;-66
2022/03/09 04:00:09;;;;;;;0.43;0.43;;;;;;;;;;4213421;28;20449;-66
2022/03/09 04:02:09;;;;;;;1.02;0.50;;;;;;;;;;4213145;28;20101;-66
2022/03/09 04:04:10;;;;;;;0.60;0.40;;;;;;;;;;4195647;28;20105;-66
2022/03/09 04:06:11;;;;;;;1.02;0.47;;;;;;;;;;4213305;28;20091;-66
2022/03/09 04:08:12;;;;;;;0.55;0.50;;;;;;;;;;4212240;28;20073;-66
2022/03/09 04:10:13;;;;;;;0.73;0.30;;;;;;;;;;4213195;28;20120;-66
2022/03/09 04:12:15;;;;;;;1.33;0.40;;;;;;;;;;4213368;28;20052;-66
2022/03/09 04:14:19;;;;;;;0.60;0.50;;;;;;;;;;4211713;28;20494;-67
2022/03/09 04:16:20;;;;;;;1.40;0.45;;;;;;;;;;4213298;28;20052;-66
2022/03/09 04:18:21;;;;;;;0.70;0.40;;;;;;;;;;4212936;28;20101;-66
2022/03/09 04:20:23;;;;;;;0.55;0.30;;;;;;;;;;4213091;28;20048;-66
2022/03/09 04:22:23;;;;;;;0.47;0.30;;;;;;;;;;4213078;28;20522;-67
2022/03/09 04:24:24;;;;;;;0.93;0.35;;;;;;;;;;4213146;28;20094;-67
2022/03/09 04:26:25;;;;;;;0.75;0.60;;;;;;;;;;4212676;28;20162;-66
2022/03/09 04:28:26;;;;;;;0.95;0.57;;;;;;;;;;4212914;28;20052;-66
2022/03/09 04:30:27;;;;;;;0.82;0.45;;;;;;;;;;4213248;28;20105;-66
2022/03/09 04:32:28;;;;;;;0.88;0.40;;;;;;;;;;4211580;28;20048;-67
2022/03/09 04:34:30;;;;;;;1.15;0.28;;;;;;;;;;4212876;28;20089;-66
2022/03/09 04:36:31;;;;;;;0.82;0.20;;;;;;;;;;4210301;28;20450;-66
2022/03/09 04:38:31;;;;;;;0.60;0.30;;;;;;;;;;4212766;28;20056;-67
2022/03/09 04:40:32;;;;;;;0.52;0.30;;;;;;;;;;4212839;28;20165;-67
2022/03/09 04:42:34;;;;;;;1.00;0.40;;;;;;;;;;4213131;28;20044;-66
2022/03/09 04:44:35;;;;;;;1.35;0.50;;;;;;;;;;4212796;28;20518;-66
2022/03/09 04:46:36;;;;;;;2.80;0.63;;;;;;;;;;4212818;28;20086;-67
2022/03/09 04:48:37;;;;;;;1.10;0.20;;;;;;;;;;4212302;28;20106;-66
2022/03/09 04:50:38;;;;;;;0.60;0.30;;;;;;;;;;4212492;28;20044;-66
2022/03/09 04:52:40;;;;;;;0.60;0.50;;;;;;;;;;4212363;28;20380;-66
2022/03/09 04:54:42;;;;;;;1.40;0.40;;;;;;;;;;4212834;28;20056;-66
2022/03/09 04:56:42;;;;;;;0.40;0.35;;;;;;;;;;4212546;28;20502;-67
2022/03/09 04:58:43;;;;;;;0.70;0.50;;;;;;;;;;4212618;28;20154;-66
2022/03/09 05:00:44;;;;;;;0.52;0.30;;;;;;;;;;4212749;28;20047;-66
2022/03/09 05:02:45;;;;;;;0.65;0.40;;;;;;;;;;4194269;28;20150;-66
2022/03/09 05:04:46;;;;;;;1.08;0.40;;;;;;;;;;4212871;28;20052;-66
2022/03/09 05:06:47;;;;;;;0.98;0.60;;;;;;;;;;4194760;28;20573;-66
2022/03/09 05:08:48;;;;;;;1.50;0.60;;;;;;;;;;4212792;28;20062;-67
2022/03/09 05:10:49;;;;;;;0.50;0.40;;;;;;;;;;4212391;28;20524;-66
2022/03/09 05:12:50;;;;;;;1.25;0.35;;;;;;;;;;4212504;28;20144;-66
2022/03/09 05:14:51;;;;;;;3.22;0.40;;;;;;;;;;4212523;28;20099;-66
2022/03/09 05:16:52;;;;;;;0.90;0.50;;;;;;;;;;4212003;28;20091;-66
2022/03/09 05:18:53;;;;;;;0.70;0.32;;;;;;;;;;4212592;28;20170;-67
2022/03/09 05:20:54;;;;;;;0.85;0.40;;;;;;;;;;4212425;28;20084;-66
2022/03/09 05:22:55;;;;;;;0.82;0.50;;;;;;;;;;4212396;28;20094;-66
2022/03/09 05:24:56;;;;;;;0.75;0.47;;;;;;;;;;4212412;28;20140;-66
2022/03/09 05:26:56;;;;;;;1.80;0.40;;;;;;;;;;4210964;28;20078;-66
2022/03/09 05:28:57;;;;;;;1.48;0.55;;;;;;;;;;4211411;28;20607;-66
2022/03/09 05:30:58;;;;;;;0.47;0.32;;;;;;;;;;4211146;28;20096;-66
2022/03/09 05:32:59;;;;;;;0.90;0.30;;;;;;;;;;4211923;28;20078;-66
2022/03/09 05:35:00;;;;;;;1.65;0.90;;;;;;;;;;4212411;28;20102;-66
2022/03/09 05:37:02;;;;;;;1.02;0.30;;;;;;;;;;4212474;28;20117;-66
2022/03/09 05:39:03;;;;;;;0.35;0.35;;;;;;;;;;4215463;28;20464;-66
2022/03/09 05:41:04;;;;;;;0.73;0.35;;;;;;;;;;4215750;28;20052;-66
2022/03/09 05:43:05;;;;;;;0.50;0.35;;;;;;;;;;4215540;28;20394;-66
2022/03/09 05:45:06;;;;;;;1.60;0.30;;;;;;;;;;4215539;28;20110;-66
2022/03/09 05:47:07;;;;;;;1.17;0.50;;;;;;;;;;4214972;28;20056;-66
2022/03/09 05:49:08;;;;;;;0.40;0.40;;;;;;;;;;4215762;28;20059;-66
2022/03/09 05:51:10;;;;;;;1.98;0.40;;;;;;;;;;4215220;28;20059;-67
2022/03/09 05:53:11;;;;;;;0.95;0.40;;;;;;;;;;4215267;28;20086;-66
2022/03/09 05:55:12;;;;;;;0.40;0.30;;;;;;;;;;4215519;28;20124;-67
2022/03/09 05:57:13;;;;;;;0.60;0.30;;;;;;;;;;4215367;28;20112;-66
2022/03/09 05:59:14;;;;;;;0.77;0.40;;;;;;;;;;4215216;28;20044;-66
2022/03/09 06:01:15;;;;;;;1.45;0.40;;;;;;;;;;4203351;28;20095;-66
2022/03/09 06:03:16;;;;;;;0.57;0.30;;;;;;;;;;4196592;28;20052;-66
2022/03/09 06:05:17;;;;;;;0.30;0.30;;;;;;;;;;4196822;28;20103;-66
2022/03/09 06:07:17;;;;;;;0.52;0.40;;;;;;;;;;4196870;28;20121;-67
2022/03/09 06:09:18;;;;;;;1.63;0.30;;;;;;;;;;4196977;28;20135;-66
2022/03/09 06:11:19;;;;;;;0.80;0.30;;;;;;;;;;4196915;28;20543;-66
2022/03/09 06:13:20;;;;;;;0.50;0.35;;;;;;;;;;4178436;28;20468;-66
2022/03/09 06:15:21;;;;;;;0.68;0.50;;;;;;;;;;4196534;28;20056;-66
2022/03/09 06:17:22;;;;;;;0.82;0.40;;;;;;;;;;4195727;28;20090;-66
2022/03/09 06:19:23;;;;;;;3.50;0.65;;;;;;;;;;4196522;28;20053;-66
2022/03/09 06:21:24;;;;;;;1.15;0.50;;;;;;;;;;4178599;28;20555;-66
2022/03/09 06:23:25;;;;;;;0.80;0.50;;;;;;;;;;4196666;28;20510;-66
2022/03/09 06:25:26;;;;;;;1.23;0.68;;;;;;;;;;4196188;28;20056;-66
2022/03/09 06:27:27;;;;;;;2.58;0.52;;;;;;;;;;4196318;28;20053;-67
2022/03/09 06:29:28;;;;;;;2.10;0.77;;;;;;;;;;4196383;28;20514;-65
2022/03/09 06:31:29;;;;;;;1.17;0.60;;;;;;;;;;4196230;28;20485;-65
2022/03/09 06:33:30;;;;;;;1.45;0.60;;;;;;;;;;4197170;28;20056;-67
2022/03/09 06:35:31;;;;;;;1.55;0.57;;;;;;;;;;4204179;28;20064;-67
2022/03/09 06:37:33;;;;;;;2.35;0.75;;;;;;;;;;4209872;28;20056;-64
2022/03/09 06:39:33;;;;;;;3.38;0.68;;;;;;;;;;4209065;28;20069;-67
2022/03/09 06:41:34;;;;;;;2.25;0.70;;;;;;;;;;4158440;28;20224;-65
2022/03/09 06:43:35;;;;;;;1.10;0.50;;;;;;;;;;4209416;28;20051;-65
2022/03/09 06:45:36;;;;;;;3.35;0.80;;;;;;;;;;4169586;28;20495;-66
2022/03/09 06:47:38;;;;;;;2.10;1.00;;;;;;;;;;4208381;28;20074;-66
2022/03/09 06:49:39;;;;;;;1.50;0.60;;;;;;;;;;4190786;28;20055;-68
2022/03/09 06:51:40;;;;;;;3.80;0.90;;;;;;;;;;4208022;28;20063;-67
2022/03/09 06:53:42;;;;;;;2.35;1.20;;;;;;;;;;4209185;28;20052;-67
2022/03/09 06:55:43;;;;;;;1.65;0.70;;;;;;;;;;4208292;28;20135;-68
2022/03/09 06:57:44;;;;;;;1.85;0.70;;;;;;;;;;4207502;28;20239;-67
2022/03/09 06:59:46;;;;;;;3.38;0.90;;;;;;;;;;4191084;28;20049;-67
2022/03/09 07:01:47;;;;;;;1.73;0.60;;;;;;;;;;4206427;28;20052;-66
2022/03/09 07:03:48;;;;;;;3.67;0.52;;;;;;;;;;4172902;28;20099;-67
2022/03/09 07:05:49;;;;;;;2.58;1.33;;;;;;;;;;4192110;28;20451;-66
2022/03/09 07:07:49;;;;;;;2.35;1.25;;;;;;;;;;4208936;28;20088;-66
2022/03/09 07:09:52;;;;;;;1.80;0.60;;;;;;;;;;4206533;28;20056;-67
2022/03/09 07:11:53;;;;;;;1.15;0.70;;;;;;;;;;4187297;28;20044;-67
2022/03/09 07:13:54;;;;;;;3.47;0.98;;;;;;;;;;4184777;28;20095;-66
2022/03/09 07:15:55;;;;;;;3.88;1.00;;;;;;;;;;4198080;28;20055;-68
2022/03/09 07:17:56;;;;;;;6.20;0.80;;;;;;;;;;4189327;28;20549;-69
2022/03/09 07:19:57;;;;;;;3.58;0.90;;;;;;;;;;4184917;28;20452;-67
2022/03/09 07:21:58;;;;;;;4.20;1.00;;;;;;;;;;4192585;28;20113;-69
2022/03/09 07:23:59;;;;;;;1.27;0.80;;;;;;;;;;4201494;28;20101;-67
2022/03/09 07:26:00;;;;;;;2.40;0.80;;;;;;;;;;4179250;28;20149;-68
2022/03/09 07:28:01;;;;;;;4.97;1.13;;;;;;;;;;4193729;28;20737;-66
2022/03/09 07:30:03;;;;;;;3.60;1.00;;;;;;;;;;4164977;28;20048;-68
2022/03/09 07:32:05;;;;;;;1.77;0.60;;;;;;;;;;4192003;28;20047;-68
2022/03/09 07:34:06;;;;;;;2.35;1.02;;;;;;;;;;4199779;28;20052;-69
2022/03/09 07:36:08;;;;;;;2.03;0.80;;;;;;;;;;4197176;28;20453;-68
2022/03/09 07:38:10;;;;;;;3.13;1.00;;;;;;;;;;4198598;28;20073;-68
2022/03/09 07:40:11;;;;;;;2.75;1.10;;;;;;;;;;4201535;28;20116;-68
2022/03/09 07:42:12;;;;;;;2.63;0.80;;;;;;;;;;4194349;28;20142;-67
2022/03/09 07:44:13;;;;;;;3.42;1.05;;;;;;;;;;4199364;28;20044;-68
2022/03/09 07:46:15;;;;;;;2.42;1.15;;;;;;;;;;4197602;28;20552;-68
2022/03/09 07:48:15;;;;;;;3.25;0.80;;;;;;;;;;4200415;28;20073;-67
2022/03/09 07:50:16;;;;;;;1.60;0.85;;;;;;;;;;4197788;28;20140;-68
2022/03/09 07:52:17;;;;;;;4.05;0.73;;;;;;;;;;4195698;28;20101;-68
2022/03/09 07:54:18;;;;;;;3.17;0.75;;;;;;;;;;4199284;28;20113;-68
2022/03/09 07:56:20;;;;;;;3.30;0.95;;;;;;;;;;4191626;28;20056;-69
2022/03/09 07:58:20;;;;;;;4.85;1.20;;;;;;;;;;4188207;28;20182;-69
2022/03/09 08:00:22;;;;;;;2.78;1.10;;;;;;;;;;4183853;28;21604;-68
2022/03/09 08:02:23;;;;;;;3.42;1.10;;;;;;;;;;4187275;28;20517;-68
2022/03/09 08:04:24;;;;;;;3.20;1.10;;;;;;;;;;4194668;28;20164;-67
2022/03/09 08:06:25;;;;;;;4.03;0.90;;;;;;;;;;4188174;28;20526;-68
2022/03/09 08:08:26;;;;;;;5.18;1.20;;;;;;;;;;4168748;28;20048;-67
2022/03/09 08:10:27;;;;;;;3.42;1.00;;;;;;;;;;4184562;28;20090;-67
2022/03/09 08:12:28;;;;;;;2.13;0.80;;;;;;;;;;4188057;28;20063;-68
2022/03/09 08:14:29;;;;;;;3.00;0.80;;;;;;;;;;4185277;28;20052;-67
2022/03/09 08:16:30;;;;;;;1.88;0.73;;;;;;;;;;4185030;28;20078;-67
2022/03/09 08:18:31;;;;;;;3.10;0.77;;;;;;;;;;4164302;28;20106;-67
2022/03/09 08:20:32;;;;;;;1.55;0.60;;;;;;;;;;4190240;28;20514;-67
2022/03/09 08:22:33;;;;;;;1.23;0.70;;;;;;;;;;4182482;28;20056;-68
2022/03/09 08:24:34;;;;;;;5.07;0.82;;;;;;;;;;4180662;28;20105;-67
2022/03/09 08:26:35;;;;;;;1.23;0.88;;;;;;;;;;4171732;28;20105;-68
2022/03/09 08:28:36;;;;;;;5.05;1.20;;;;;;;;;;4189488;28;20063;-67
2022/03/09 08:30:38;;;;;;;2.95;1.10;;;;;;;;;;4182545;28;20051;-67
2022/03/09 08:32:40;;;;;;;1.27;0.80;;;;;;;;;;4167583;28;20052;-66
2022/03/09 08:34:42;;;;;;;4.07;1.00;;;;;;;;;;4185671;28;20952;-66
2022/03/09 08:36:43;;;;;;;2.50;0.73;;;;;;;;;;4193908;28;21218;-67
2022/03/09 08:38:44;;;;;;;1.95;1.00;;;;;;;;;;4177661;28;20087;-67
2022/03/09 08:40:45;;;;;;;1.77;1.10;;;;;;;;;;4192833;28;20072;-66
2022/03/09 08:42:46;;;;;;;3.13;0.93;;;;;;;;;;4190794;28;20078;-67
2022/03/09 08:44:47;;;;;;;2.63;1.20;;;;;;;;;;4189791;28;20836;-67
2022/03/09 08:46:48;;;;;;;4.10;1.00;;;;;;;;;;4156979;28;20056;-65
2022/03/09 08:48:49;;;;;;;3.33;0.90;;;;;;;;;;4155823;28;20094;-64
2022/03/09 08:50:52;;;;;;;2.70;1.00;;;;;;;;;;4176311;28;20786;-65
2022/03/09 08:52:53;;;;;;;2.83;1.33;;;;;;;;;;4189209;28;20628;-65
2022/03/09 08:54:54;;;;;;;1.20;0.57;;;;;;;;;;4193776;28;20121;-66
2022/03/09 08:56:55;;;;;;;2.40;0.80;;;;;;;;;;4161325;28;20508;-65
2022/03/09 08:58:57;;;;;;;4.57;1.25;;;;;;;;;;4186872;28;20079;-66
2022/03/09 09:00:58;;;;;;;4.10;1.48;;;;;;;;;;4180554;28;20502;-65
2022/03/09 09:03:00;;;;;;;2.97;1.13;;;;;;;;;;4163223;28;20103;-66
2022/03/09 09:05:02;;;;;;;2.30;0.98;;;;;;;;;;4186825;28;20052;-65
2022/03/09 09:07:04;;;;;;;4.25;1.35;;;;;;;;;;4181313;28;21117;-65
2022/03/09 09:09:05;;;;;;;3.22;1.08;;;;;;;;;;4163843;28;20470;-66
2022/03/09 09:11:06;;;;;;;6.57;1.30;;;;;;;;;;4169708;28;20057;-66
2022/03/09 09:13:07;;;;;;;4.45;1.25;;;;;;;;;;4192827;28;20048;-65
2022/03/09 09:15:08;;;;;;;3.53;1.20;;;;;;;;;;4174730;28;20056;-65
2022/03/09 09:17:09;;;;;;;2.35;0.93;;;;;;;;;;4175349;28;20493;-65
2022/03/09 09:19:10;;;;;;;4.10;1.10;;;;;;;;;;4168916;28;20162;-64
2022/03/09 09:21:11;;;;;;;2.30;1.05;;;;;;;;;;4192835;28;20057;-65
2022/03/09 09:23:12;;;;;;;2.78;0.90;;;;;;;;;;4196335;28;20113;-64
2022/03/09 09:25:14;;;;;;;3.03;1.05;;;;;;;;;;4165598;28;20155;-64
2022/03/09 09:27:14;;;;;;;2.22;0.70;;;;;;;;;;4187021;28;20554;-66
2022/03/09 09:29:15;;;;;;;2.80;0.80;;;;;;;;;;4194811;28;20438;-66
2022/03/09 09:31:16;;;;;;;2.55;1.10;;;;;;;;;;4172991;28;20057;-66
2022/03/09 09:33:17;;;;;;;2.17;0.90;;;;;;;;;;4189329;28;20063;-66
2022/03/09 09:35:18;;;;;;;3.40;0.80;;;;;;;;;;4195921;28;20105;-66
2022/03/09 09:37:19;;;;;;;2.15;0.90;;;;;;;;;;4192330;28;20728;-66
2022/03/09 09:39:21;;;;;;;4.97;0.80;;;;;;;;;;4168238;28;20044;-67
2022/03/09 09:41:25;;;;;;;3.40;1.00;;;;;;;;;;4192551;28;20052;-66
2022/03/09 09:43:26;;;;;;;3.53;0.88;;;;;;;;;;4193885;28;20133;-67
2022/03/09 09:45:27;;;;;;;1.23;0.90;;;;;;;;;;4195549;28;20142;-66
2022/03/09 09:47:29;;;;;;;2.70;0.95;;;;;;;;;;4174576;28;20553;-66
2022/03/09 09:49:37;;;;;;;2.35;0.77;;;;;;;;;;4194332;28;20140;-66
2022/03/09 09:51:39;;;;;;;2.97;1.00;;;;;;;;;;4188800;28;20540;-67
2022/03/09 09:53:44;;;;;;;3.33;1.00;;;;;;;;;;4171296;28;20052;-66
2022/03/09 09:55:45;;;;;;;2.40;1.00;;;;;;;;;;4195451;28;20044;-67
2022/03/09 09:57:47;;;;;;;1.83;0.93;;;;;;;;;;4194366;28;20105;-67
2022/03/09 09:59:49;;;;;;;1.63;0.60;;;;;;;;;;4187607;28;20471;-66
2022/03/09 10:01:50;;;;;;;2.42;0.63;;;;;;;;;;4173681;28;20056;-67
2022/03/09 10:03:51;;;;;;;3.80;0.90;;;;;;;;;;4191002;28;20534;-66
2022/03/09 10:05:52;;;;;;;1.83;0.85;;;;;;;;;;4174330;28;20107;-67
2022/03/09 10:08:05;;;;;;;2.25;0.70;;;;;;;;;;4195786;28;20113;-67
2022/03/09 10:10:16;;;;;;;1.10;0.55;;;;;;;;;;4190584;28;20196;-66
2022/03/09 10:12:25;;;;;;;1.52;0.77;;;;;;;;;;4190443;28;20121;-64
2022/03/09 10:14:44;;;;;;;2.17;0.60;;;;;;;;;;4193422;28;20089;-64
2022/03/09 10:17:05;;;;;;;2.10;0.73;;;;;;;;;;4169638;28;20102;-69
2022/03/09 10:19:06;;;;;;;2.20;0.75;;;;;;;;;;4192066;28;20044;-67
2022/03/09 10:21:07;;;;;;;2.58;0.60;;;;;;;;;;4172511;28;20110;-65
2022/03/09 10:23:09;;;;;;;1.42;0.60;;;;;;;;;;4195525;28;20059;-67
2022/03/09 10:25:09;;;;;;;2.25;0.55;;;;;;;;;;4170404;28;20049;-66
2022/03/09 10:27:10;;;;;;;1.40;0.80;;;;;;;;;;4171429;28;20057;-67
2022/03/09 10:29:13;;;;;;;2.05;0.70;;;;;;;;;;4171501;28;20727;-66
2022/03/09 10:31:29;;;;;;;2.33;0.70;;;;;;;;;;4194272;28;20048;-65
2022/03/09 10:33:30;;;;;;;1.48;0.52;;;;;;;;;;4181716;28;20056;-67
2022/03/09 10:35:31;;;;;;;1.10;0.57;;;;;;;;;;4167478;28;21391;-67
2022/03/09 10:37:39;;;;;;;3.35;0.82;;;;;;;;;;4167090;28;20060;-67
2022/03/09 10:39:39;;;;;;;0.90;0.50;;;;;;;;;;4173622;28;20537;-66
2022/03/09 10:41:40;;;;;;;3.72;0.68;;;;;;;;;;4181872;28;20059;-66
2022/03/09 10:43:47;;;;;;;0.85;0.52;;;;;;;;;;4169322;28;20125;-66
2022/03/09 10:46:00;;;;;;;1.92;0.55;;;;;;;;;;4186206;28;20817;-66
2022/03/09 10:48:01;;;;;;;2.85;0.80;;;;;;;;;;4176134;28;20062;-65
2022/03/09 10:50:16;;;;;;;1.70;0.45;;;;;;;;;;4197307;28;20448;-64
2022/03/09 10:52:17;;;;;;;1.50;0.63;;;;;;;;;;4199633;28;20060;-65
2022/03/09 10:54:18;;;;;;;1.50;0.50;;;;;;;;;;4197837;28;20498;-66
2022/03/09 10:56:19;;;;;;;2.63;0.57;;;;;;;;;;4195461;28;20109;-66
2022/03/09 10:58:21;;;;;;;1.00;0.43;;;;;;;;;;4178712;28;20099;-66
2022/03/09 11:00:37;;;;;;;0.88;0.47;;;;;;;;;;4177323;28;20045;-69
2022/03/09 11:02:48;;;;;;;1.98;0.40;;;;;;;;;;4195337;28;20043;-66
2022/03/09 11:05:06;;;;;;;1.00;0.50;;;;;;;;;;4195953;28;20052;-67
2022/03/09 11:07:09;;;;;;;1.17;0.50;;;;;;;;;;4196163;28;20410;-67
2022/03/09 11:09:10;;;;;;;1.73;0.63;;;;;;;;;;4168349;28;20435;-67
2022/03/09 11:11:14;;;;;;;0.50;0.50;;;;;;;;;;4191696;28;20063;-67
2022/03/09 11:13:15;;;;;;;1.27;0.52;;;;;;;;;;4176470;28;20522;-67
2022/03/09 11:15:19;;;;;;;1.48;0.50;;;;;;;;;;4198186;28;20105;-67
2022/03/09 11:17:23;;;;;;;2.38;0.57;;;;;;;;;;4181052;28;20556;-68
2022/03/09 11:19:25;;;;;;;0.85;0.57;;;;;;;;;;4185890;28;20071;-67
2022/03/09 11:21:25;;;;;;;0.80;0.52;;;;;;;;;;4175810;28;20057;-67
2022/03/09 11:23:28;;;;;;;0.80;0.32;;;;;;;;;;4200581;28;20109;-67
2022/03/09 11:25:29;;;;;;;0.60;0.35;;;;;;;;;;4198116;28;20573;-67
2022/03/09 11:27:31;;;;;;;1.33;0.80;;;;;;;;;;4178745;28;20056;-67
2022/03/09 11:29:34;;;;;;;1.30;0.70;;;;;;;;;;4180648;28;20056;-67
2022/03/09 11:31:49;;;;;;;1.73;0.63;;;;;;;;;;4177718;28;20739;-67
2022/03/09 11:33:51;;;;;;;1.08;0.40;;;;;;;;;;4187579;28;20074;-68
2022/03/09 11:35:52;;;;;;;1.15;0.60;;;;;;;;;;4188036;28;20432;-68
2022/03/09 11:37:53;;;;;;;0.60;0.40;;;;;;;;;;4192984;28;20100;-69
2022/03/09 11:40:06;;;;;;;1.40;0.50;;;;;;;;;;4196400;28;20052;-69
2022/03/09 11:42:19;;;;;;;1.42;0.50;;;;;;;;;;4194583;28;20056;-68
2022/03/09 11:44:20;;;;;;;0.40;0.40;;;;;;;;;;4167905;28;20122;-69
2022/03/09 11:46:21;;;;;;;1.42;0.57;;;;;;;;;;4182758;28;20055;-69
2022/03/09 11:48:22;;;;;;;0.70;0.40;;;;;;;;;;4185652;28;20143;-69
2022/03/09 11:50:23;;;;;;;0.68;0.55;;;;;;;;;;4166517;28;20551;-69
2022/03/09 11:52:25;;;;;;;0.35;0.35;;;;;;;;;;4174904;28;20094;-69
2022/03/09 11:54:39;;;;;;;1.13;0.57;;;;;;;;;;4194577;28;20137;-69
2022/03/09 11:56:50;;;;;;;1.48;0.60;;;;;;;;;;4197181;28;20524;-69
2022/03/09 11:59:11;;;;;;;1.80;0.43;;;;;;;;;;4172932;28;20048;-70
2022/03/09 12:01:12;;;;;;;2.22;0.80;;;;;;;;;;4190285;28;20060;-69
2022/03/09 12:03:33;;;;;;;0.45;0.30;;;;;;;;;;4187807;28;20459;-70
2022/03/09 12:05:35;;;;;;;1.10;0.30;;;;;;;;;;4199610;28;20104;-68
2022/03/09 12:07:37;;;;;;;0.38;0.38;;;;;;;;;;4197173;28;20510;-68
2022/03/09 12:09:59;;;;;;;1.27;0.60;;;;;;;;;;4170410;28;20098;-69
2022/03/09 12:12:07;;;;;;;3.33;0.50;;;;;;;;;;4179365;28;20071;-69
2022/03/09 12:14:08;;;;;;;0.35;0.30;;;;;;;;;;4177612;28;20206;-68